createdAt,value
2023-01-08T00:01:50.976Z,99207.53
2023-01-08T00:04:20.780Z,99210.97
2023-01-08T00:06:47.676Z,99206.69
2023-01-08T00:09:14.562Z,99209.28
2023-01-08T00:11:41.382Z,99207.53
2023-01-08T00:14:08.196Z,99208.41
2023-01-08T00:16:35.117Z,99208.41
2023-01-08T00:19:01.965Z,99204.16
2023-01-08T00:21:29.004Z,99198.19
2023-01-08T00:23:55.842Z,99212.66
2023-01-08T00:26:22.721Z,99213.53
2023-01-08T00:28:51.790Z,99217.78
2023-01-08T00:31:18.697Z,99206.72
2023-01-08T00:33:45.631Z,99207.53
2023-01-08T00:36:13.711Z,99201.59
2023-01-08T00:38:40.542Z,99204.13
2023-01-08T00:41:07.407Z,99199.03
2023-01-08T00:43:34.283Z,99192.19
2023-01-08T00:46:01.224Z,99181.09
2023-01-08T00:48:28.134Z,99176.00
2023-01-08T00:50:55.067Z,99177.69
2023-01-08T00:53:22.038Z,99176.81
2023-01-08T00:55:48.907Z,99181.13
2023-01-08T00:58:15.733Z,99172.56
2023-01-08T01:00:43.177Z,99175.13
2023-01-08T01:03:10.027Z,99174.28
2023-01-08T01:05:36.830Z,99177.72
2023-01-08T01:08:03.757Z,99186.25
2023-01-08T01:10:30.586Z,99177.72
2023-01-08T01:12:57.333Z,99168.34
2023-01-08T01:15:24.199Z,99173.47
2023-01-08T01:17:50.982Z,99176.03
2023-01-08T01:20:17.866Z,99173.47
2023-01-08T01:22:44.812Z,99174.28
2023-01-08T01:25:11.675Z,99179.41
2023-01-08T01:27:38.511Z,99170.06
2023-01-08T01:30:05.700Z,99167.50
2023-01-08T01:32:32.584Z,99170.06
2023-01-08T01:34:59.465Z,99158.13
2023-01-08T01:37:26.437Z,99164.94
2023-01-08T01:39:53.330Z,99163.25
2023-01-08T01:42:38.780Z,99160.69
2023-01-08T01:45:14.021Z,99161.53
2023-01-08T01:47:40.986Z,99164.09
2023-01-08T01:50:07.806Z,99153.03
2023-01-08T01:52:37.714Z,99157.28
2023-01-08T01:55:04.767Z,99156.41
2023-01-08T01:57:31.928Z,99157.28
2023-01-08T01:59:58.731Z,99151.28
2023-01-08T02:02:25.787Z,99154.72
2023-01-08T02:04:52.734Z,99150.47
2023-01-08T02:07:28.731Z,99152.16
2023-01-08T02:10:09.998Z,99144.47
2023-01-08T02:12:39.409Z,99137.69
2023-01-08T02:15:19.917Z,99145.34
2023-01-08T02:18:08.984Z,99147.91
2023-01-08T02:20:36.980Z,99141.06
2023-01-08T02:23:22.798Z,99131.69
2023-01-08T02:26:06.796Z,99138.53
2023-01-08T02:28:38.603Z,99129.13
2023-01-08T02:31:05.997Z,99137.69
2023-01-08T02:33:33.107Z,99134.25
2023-01-08T02:36:18.936Z,99128.31
2023-01-08T02:38:50.598Z,99118.91
2023-01-08T02:41:17.440Z,99129.16
2023-01-08T02:43:48.595Z,99121.47
2023-01-08T02:46:17.403Z,99128.31
2023-01-08T02:48:51.752Z,99128.31
2023-01-08T02:51:27.751Z,99118.09
2023-01-08T02:53:55.649Z,99116.34
2023-01-08T02:56:23.692Z,99108.66
2023-01-08T02:58:50.731Z,99100.16
2023-01-08T03:01:17.691Z,99108.69
2023-01-08T03:03:46.216Z,99106.13
2023-01-08T03:06:13.566Z,99108.69
2023-01-08T03:08:41.072Z,99106.97
2023-01-08T03:11:08.567Z,99107.84
2023-01-08T03:13:54.074Z,99102.72
2023-01-08T03:16:31.821Z,99108.69
2023-01-08T03:19:05.691Z,99109.53
2023-01-08T03:21:32.841Z,99113.78
2023-01-08T03:23:59.549Z,99119.78
2023-01-08T03:26:26.357Z,99118.09
2023-01-08T03:28:53.815Z,99112.97
2023-01-08T03:31:20.648Z,99118.09
2023-01-08T03:33:47.455Z,99115.53
2023-01-08T03:36:14.590Z,99121.47
2023-01-08T03:38:42.676Z,99118.09
2023-01-08T03:41:10.354Z,99118.09
2023-01-08T03:43:37.169Z,99124.91
2023-01-08T03:46:05.139Z,99121.47
2023-01-08T03:48:32.317Z,99112.09
2023-01-08T03:50:59.489Z,99112.97
2023-01-08T03:53:26.340Z,99115.53
2023-01-08T03:55:53.160Z,99106.13
2023-01-08T03:58:19.866Z,99102.72
2023-01-08T04:00:47.117Z,99105.28
2023-01-08T04:03:13.849Z,99102.72
2023-01-08T04:05:40.620Z,99101.84
2023-01-08T04:08:07.407Z,99092.47
2023-01-08T04:10:34.400Z,99093.31
2023-01-08T04:13:01.151Z,99095.88
2023-01-08T04:15:28.131Z,99096.75
2023-01-08T04:17:55.064Z,99101.00
2023-01-08T04:20:21.773Z,99089.94
2023-01-08T04:22:48.545Z,99084.81
2023-01-08T04:25:15.381Z,99077.13
2023-01-08T04:27:42.214Z,99072.00
2023-01-08T04:30:09.311Z,99068.59
2023-01-08T04:32:36.080Z,99073.72
2023-01-08T04:35:02.859Z,99071.16
2023-01-08T04:37:29.670Z,99066.91
2023-01-08T04:39:56.462Z,99068.59
2023-01-08T04:42:23.180Z,99072.00
2023-01-08T04:44:49.981Z,99062.59
2023-01-08T04:47:16.727Z,99070.28
2023-01-08T04:49:43.625Z,99057.50
2023-01-08T04:52:10.380Z,99052.38
2023-01-08T04:54:37.146Z,99053.22
2023-01-08T04:57:03.871Z,99052.38
2023-01-08T04:59:30.685Z,99048.97
2023-01-08T05:01:57.600Z,99042.13
2023-01-08T05:04:24.369Z,99057.50
2023-01-08T05:06:51.168Z,99045.56
2023-01-08T05:09:17.883Z,99049.81
2023-01-08T05:11:44.654Z,99051.53
2023-01-08T05:14:11.383Z,99042.13
2023-01-08T05:16:38.158Z,99034.44
2023-01-08T05:19:04.945Z,99042.13
2023-01-08T05:21:31.768Z,99031.91
2023-01-08T05:23:58.562Z,99037.00
2023-01-08T05:26:25.364Z,99029.34
2023-01-08T05:28:53.058Z,99037.88
2023-01-08T05:31:19.913Z,99031.88
2023-01-08T05:33:46.862Z,99030.19
2023-01-08T05:36:13.726Z,99031.06
2023-01-08T05:38:40.642Z,99022.50
2023-01-08T05:41:07.445Z,99025.06
2023-01-08T05:43:34.665Z,99019.97
2023-01-08T05:46:01.722Z,99025.94
2023-01-08T05:48:28.735Z,99020.81
2023-01-08T05:50:55.577Z,99025.06
2023-01-08T05:53:22.322Z,99024.22
2023-01-08T05:55:49.202Z,99023.38
2023-01-08T05:58:19.259Z,99025.06
2023-01-08T06:00:46.225Z,99019.97
2023-01-08T06:03:12.991Z,99020.81
2023-01-08T06:05:39.818Z,99023.38
2023-01-08T06:08:08.523Z,99012.28
2023-01-08T06:10:37.376Z,99022.50
2023-01-08T06:13:06.938Z,99010.53
2023-01-08T06:15:33.734Z,99006.28
2023-01-08T06:18:03.867Z,99010.53
2023-01-08T06:20:30.630Z,99008.84
2023-01-08T06:22:57.584Z,98999.47
2023-01-08T06:25:24.908Z,99004.59
2023-01-08T06:27:54.268Z,99002.84
2023-01-08T06:30:21.057Z,99007.97
2023-01-08T06:32:47.941Z,99007.97
2023-01-08T06:35:14.745Z,99000.28
2023-01-08T06:37:41.622Z,99002.00
2023-01-08T06:40:08.740Z,98999.47
2023-01-08T06:42:35.563Z,98995.16
2023-01-08T06:45:02.427Z,98989.22
2023-01-08T06:47:29.277Z,98990.91
2023-01-08T06:49:56.105Z,98990.06
2023-01-08T06:52:22.936Z,98990.91
2023-01-08T06:54:49.790Z,98983.25
2023-01-08T06:57:16.695Z,98980.66
2023-01-08T06:59:43.745Z,98985.78
2023-01-08T07:02:13.971Z,98989.22
2023-01-08T07:04:41.032Z,98996.03
2023-01-08T07:07:08.009Z,98996.00
2023-01-08T07:09:35.604Z,98998.56
2023-01-08T07:12:02.577Z,98998.56
2023-01-08T07:14:29.438Z,98988.34
2023-01-08T07:16:56.257Z,98996.84
2023-01-08T07:19:23.270Z,98990.03
2023-01-08T07:21:50.235Z,98992.56
2023-01-08T07:24:17.140Z,98983.22
2023-01-08T07:26:44.021Z,98982.34
2023-01-08T07:29:10.812Z,98979.78
2023-01-08T07:31:37.814Z,98982.34
2023-01-08T07:34:06.011Z,98982.34
2023-01-08T07:36:33.007Z,98977.22
2023-01-08T07:39:01.162Z,98972.09
2023-01-08T07:41:28.106Z,98967.84
2023-01-08T07:43:55.911Z,98968.69
2023-01-08T07:46:23.238Z,98972.09
2023-01-08T07:48:50.146Z,98971.25
2023-01-08T07:51:17.330Z,98967.84
2023-01-08T07:53:46.639Z,98965.28
2023-01-08T07:56:14.879Z,98959.31
2023-01-08T07:58:41.868Z,98967.84
2023-01-08T08:01:09.826Z,98966.13
2023-01-08T08:03:37.839Z,98964.44
2023-01-08T08:06:04.726Z,98955.91
2023-01-08T08:08:31.729Z,98956.78
2023-01-08T08:10:58.672Z,98957.63
2023-01-08T08:13:25.487Z,98961.03
2023-01-08T08:15:52.385Z,98960.19
2023-01-08T08:18:19.304Z,98959.34
2023-01-08T08:20:46.158Z,98955.91
2023-01-08T08:23:14.049Z,98958.50
2023-01-08T08:25:41.259Z,98947.41
2023-01-08T08:28:08.462Z,98949.97
2023-01-08T08:30:35.689Z,98950.84
2023-01-08T08:33:05.088Z,98944.00
2023-01-08T08:35:31.997Z,98938.88
2023-01-08T08:37:58.866Z,98940.63
2023-01-08T08:40:25.780Z,98935.50
2023-01-08T08:42:59.108Z,98928.66
2023-01-08T08:45:26.112Z,98935.50
2023-01-08T08:47:52.960Z,98930.38
2023-01-08T08:50:19.818Z,98929.50
2023-01-08T08:52:47.117Z,98926.97
2023-01-08T08:55:16.205Z,98931.25
2023-01-08T08:57:43.485Z,98926.13
2023-01-08T09:00:10.626Z,98925.25
2023-01-08T09:02:37.637Z,98930.38
2023-01-08T09:05:04.866Z,98923.56
2023-01-08T09:07:31.799Z,98921.00
2023-01-08T09:09:58.613Z,98929.53
2023-01-08T09:12:25.453Z,98925.25
2023-01-08T09:14:53.707Z,98925.25
2023-01-08T09:17:21.711Z,98917.56
2023-01-08T09:19:50.031Z,98921.00
2023-01-08T09:22:17.000Z,98910.75
2023-01-08T09:24:43.772Z,98894.56
2023-01-08T09:27:11.284Z,98899.66
2023-01-08T09:29:38.125Z,98892.81
2023-01-08T09:41:35.925Z,98870.56
2023-01-08T09:44:06.667Z,98860.34
2023-01-08T09:46:35.981Z,98854.38
2023-01-08T09:49:05.004Z,98843.25
2023-01-08T09:51:36.963Z,98858.63
2023-01-08T09:54:03.854Z,98839.00
2023-01-08T09:56:30.727Z,98833.00
2023-01-08T09:59:00.491Z,98819.31
2023-01-08T10:01:28.538Z,98824.47
2023-01-08T10:04:06.342Z,98815.91
2023-01-08T10:06:33.428Z,98817.59
2023-01-08T10:09:00.344Z,98819.31
2023-01-08T10:11:28.407Z,98809.06
2023-01-08T10:13:56.505Z,98796.25
2023-01-08T10:16:30.754Z,98807.34
2023-01-08T10:19:03.259Z,98795.41
2023-01-08T10:21:36.180Z,98799.69
2023-01-08T10:24:03.090Z,98788.59
2023-01-08T10:26:32.746Z,98791.97
2023-01-08T10:29:20.159Z,98788.56
2023-01-08T10:32:01.580Z,98784.28
2023-01-08T10:35:15.859Z,98781.75
2023-01-08T10:42:52.911Z,98769.75
2023-01-08T10:45:00.778Z,98775.72
2023-01-08T10:55:04.926Z,98744.94
2023-01-08T10:57:51.174Z,98746.63
2023-01-08T11:04:18.314Z,98733.78
2023-01-08T11:07:11.994Z,98733.78
2023-01-08T11:20:42.285Z,98703.03
2023-01-08T11:37:42.615Z,98673.94
2023-01-08T11:40:29.058Z,98679.03
2023-01-08T11:46:53.625Z,98668.78
2023-01-08T11:50:28.921Z,98662.81
2023-01-08T11:56:59.205Z,98671.31
2023-01-08T11:59:56.710Z,98666.19
2023-01-08T12:02:55.731Z,98670.47
2023-01-08T12:05:22.903Z,98657.63
2023-01-08T12:08:04.322Z,98654.22
2023-01-08T12:10:38.861Z,98655.06
2023-01-08T12:13:32.072Z,98649.09
2023-01-08T12:16:04.422Z,98658.47
2023-01-08T12:18:50.525Z,98655.06
2023-01-08T12:21:22.642Z,98667.03
2023-01-08T12:24:08.400Z,98666.19
2023-01-08T12:26:39.607Z,98676.44
2023-01-08T12:29:16.147Z,98684.16
2023-01-08T12:32:03.070Z,98681.56
2023-01-08T12:34:49.396Z,98675.56
2023-01-08T12:37:21.667Z,98661.94
2023-01-08T12:39:50.971Z,98667.06
2023-01-08T12:42:19.830Z,98665.34
2023-01-08T12:44:46.803Z,98662.75
2023-01-08T12:47:14.644Z,98663.63
2023-01-08T12:49:45.812Z,98670.47
2023-01-08T12:52:16.226Z,98661.94
2023-01-08T12:54:49.070Z,98659.38
2023-01-08T12:57:24.460Z,98661.06
2023-01-08T13:00:20.448Z,98657.66
2023-01-08T13:02:52.879Z,98661.97
2023-01-08T13:05:22.424Z,98670.47
2023-01-08T13:08:29.710Z,98672.19
2023-01-08T13:10:59.375Z,98661.09
2023-01-08T13:13:26.391Z,98670.50
2023-01-08T13:15:55.526Z,98663.66
2023-01-08T13:18:29.843Z,98657.69
2023-01-08T13:21:02.718Z,98651.72
2023-01-08T13:23:36.240Z,98656.84
2023-01-08T13:26:05.931Z,98659.44
2023-01-08T13:29:03.169Z,98659.44
2023-01-08T13:31:28.345Z,98657.69
2023-01-08T13:33:58.622Z,98665.38
2023-01-08T13:36:28.738Z,98666.25
2023-01-08T13:39:01.775Z,98656.84
2023-01-08T13:41:36.364Z,98658.56
2023-01-08T13:44:13.992Z,98663.69
2023-01-08T13:46:45.516Z,98670.53
2023-01-08T13:49:31.458Z,98676.53
2023-01-08T13:52:04.418Z,98679.97
2023-01-08T13:54:42.733Z,98671.41
2023-01-08T13:57:36.081Z,98676.53
2023-01-08T14:00:07.123Z,98670.56
2023-01-08T14:02:36.404Z,98673.97
2023-01-08T14:05:03.472Z,98665.44
2023-01-08T14:07:31.022Z,98668.00
2023-01-08T14:10:06.498Z,98656.91
2023-01-08T14:12:33.724Z,98662.88
2023-01-08T14:15:09.172Z,98662.88
2023-01-08T14:17:39.531Z,98659.44
2023-01-08T14:20:09.446Z,98655.19
2023-01-08T14:22:36.419Z,98652.63
2023-01-08T14:25:06.810Z,98655.19
2023-01-08T14:27:37.907Z,98644.94
2023-01-08T14:30:39.476Z,98636.41
2023-01-08T14:33:16.790Z,98627.88
2023-01-08T14:35:49.173Z,98627.03
2023-01-08T14:38:19.273Z,98615.91
2023-01-08T14:40:54.907Z,98608.22
2023-01-08T14:43:27.817Z,98598.84
2023-01-08T14:45:59.801Z,98596.28
2023-01-08T14:48:46.595Z,98583.47
2023-01-08T14:51:29.561Z,98592.88
2023-01-08T14:54:10.732Z,98591.16
2023-01-08T14:56:58.110Z,98590.31
2023-01-08T14:59:36.085Z,98587.78
2023-01-08T15:02:03.540Z,98581.81
2023-01-08T15:04:44.433Z,98585.22
2023-01-08T15:07:32.041Z,98586.09
2023-01-08T15:10:28.982Z,98582.66
2023-01-08T15:13:05.894Z,98580.97
2023-01-08T15:15:34.773Z,98588.69
2023-01-08T15:18:16.968Z,98581.00
2023-01-08T15:20:58.349Z,98588.69
2023-01-08T15:24:06.250Z,98580.16
2023-01-08T15:26:38.500Z,98581.00
2023-01-08T15:29:14.777Z,98582.69
2023-01-08T15:31:59.448Z,98585.25
2023-01-08T15:34:44.922Z,98574.16
2023-01-08T15:37:21.162Z,98574.16
2023-01-08T15:39:49.444Z,98572.47
2023-01-08T15:42:42.582Z,98572.44
2023-01-08T15:45:25.373Z,98564.75
2023-01-08T15:48:00.784Z,98558.78
2023-01-08T15:50:41.834Z,98557.09
2023-01-08T15:53:23.597Z,98566.47
2023-01-08T15:56:02.932Z,98557.94
2023-01-08T15:58:31.585Z,98551.09
2023-01-08T16:01:09.986Z,98548.53
2023-01-08T16:03:36.929Z,98545.16
2023-01-08T16:06:08.602Z,98540.84
2023-01-08T16:08:41.493Z,98529.78
2023-01-08T16:11:14.863Z,98527.22
2023-01-08T16:13:49.171Z,98535.72
2023-01-08T16:16:16.218Z,98529.78
2023-01-08T16:18:46.206Z,98524.66
2023-01-08T16:21:17.693Z,98528.03
2023-01-08T16:23:53.481Z,98527.22
2023-01-08T16:26:30.686Z,98522.91
2023-01-08T16:29:05.306Z,98530.59
2023-01-08T16:31:33.671Z,98519.53
2023-01-08T16:34:08.948Z,98517.78
2023-01-08T16:36:38.684Z,98510.97
2023-01-08T16:39:14.715Z,98507.53
2023-01-08T16:41:44.911Z,98497.31
2023-01-08T16:44:27.052Z,98485.34
2023-01-08T16:46:57.607Z,98483.66
2023-01-08T16:49:26.860Z,98484.50
2023-01-08T16:54:47.337Z,98485.34
2023-01-08T16:57:17.170Z,98483.69
2023-01-08T16:59:46.541Z,98476.00
2023-01-08T17:02:23.570Z,98474.28
2023-01-08T17:04:52.751Z,98475.16
2023-01-08T17:07:32.722Z,98485.38
2023-01-08T17:10:06.144Z,98472.59
2023-01-08T17:12:44.532Z,98481.97
2023-01-08T17:15:13.786Z,98477.72
2023-01-08T17:17:45.994Z,98473.47
2023-01-08T17:20:18.880Z,98485.44
2023-01-08T17:22:53.619Z,98484.56
2023-01-08T17:25:22.789Z,98483.72
2023-01-08T17:27:58.445Z,98475.19
2023-01-08T17:30:39.390Z,98479.44
2023-01-08T17:33:15.776Z,98480.31
2023-01-08T17:35:56.457Z,98476.88
2023-01-08T17:38:34.689Z,98477.75
2023-01-08T17:41:05.087Z,98475.19
2023-01-08T17:43:42.232Z,98480.31
2023-01-08T17:46:15.721Z,98468.38
2023-01-08T17:48:47.546Z,98463.22
2023-01-08T17:51:20.434Z,98468.34
2023-01-08T17:53:54.682Z,98464.91
2023-01-08T17:56:23.003Z,98467.47
2023-01-08T17:59:02.764Z,98458.09
2023-01-08T18:01:34.409Z,98450.38
2023-01-08T18:04:08.098Z,98449.53
2023-01-08T18:06:35.363Z,98451.22
2023-01-08T18:09:07.515Z,98456.31
2023-01-08T18:11:41.017Z,98455.47
2023-01-08T18:14:10.580Z,98452.91
2023-01-08T18:16:45.819Z,98457.19
2023-01-08T18:19:23.662Z,98452.06
2023-01-08T18:21:52.829Z,98458.91
2023-01-08T18:24:34.183Z,98451.22
2023-01-08T18:27:01.452Z,98451.22
2023-01-08T18:29:34.254Z,98446.06
2023-01-08T18:32:17.371Z,98449.50
2023-01-08T18:34:50.305Z,98451.19
2023-01-08T18:37:19.300Z,98455.47
2023-01-08T18:40:11.419Z,98461.41
2023-01-08T18:42:38.699Z,98467.41
2023-01-08T18:45:15.197Z,98464.00
2023-01-08T18:47:46.408Z,98453.75
2023-01-08T18:50:16.219Z,98450.31
2023-01-08T18:52:48.560Z,98455.44
2023-01-08T18:55:19.621Z,98452.00
2023-01-08T18:57:53.740Z,98462.25
2023-01-08T19:00:23.988Z,98446.88
2023-01-08T19:02:53.254Z,98432.38
2023-01-08T19:05:20.134Z,98441.75
2023-01-08T19:08:05.419Z,98440.94
2023-01-08T19:10:37.827Z,98428.13
2023-01-08T19:13:07.083Z,98437.56
2023-01-08T19:15:44.901Z,98437.53
2023-01-08T19:18:30.403Z,98445.25
2023-01-08T19:21:44.070Z,98447.81
2023-01-08T19:24:00.933Z,98442.72
2023-01-08T19:26:37.208Z,98439.31
2023-01-08T19:29:15.250Z,98440.19
2023-01-08T19:32:04.937Z,98447.03
2023-01-08T19:34:45.175Z,98444.47
2023-01-08T19:37:40.986Z,98449.63
2023-01-08T19:40:37.564Z,98464.16
2023-01-08T19:43:35.917Z,98462.47
2023-01-08T19:46:37.557Z,98467.63
2023-01-08T19:49:12.285Z,98476.19
2023-01-08T19:55:23.480Z,98466.88
2023-01-08T19:57:57.503Z,98457.50
2023-01-08T20:00:55.137Z,98472.06
2023-01-08T20:05:02.664Z,98475.47
2023-01-08T20:07:04.213Z,98472.97
2023-01-08T20:09:51.242Z,98472.13
2023-01-08T20:12:23.368Z,98461.91
2023-01-08T20:14:54.841Z,98460.25
2023-01-08T20:17:27.172Z,98468.78
2023-01-08T20:19:57.973Z,98466.25
2023-01-08T20:22:29.694Z,98456.03
2023-01-08T20:25:07.237Z,98455.25
2023-01-08T20:27:39.329Z,98456.97
2023-01-08T20:30:10.127Z,98458.69
2023-01-08T20:35:32.944Z,98456.19
2023-01-08T20:38:11.384Z,98445.97
2023-01-08T20:40:50.236Z,98451.94
2023-01-08T20:43:33.988Z,98451.09
2023-01-08T20:46:05.200Z,98453.69
2023-01-08T20:48:42.966Z,98448.59
2023-01-08T20:51:42.384Z,98445.19
2023-01-08T20:54:09.956Z,98441.78
2023-01-08T20:56:38.422Z,98430.69
2023-01-08T20:59:12.169Z,98440.13
2023-01-08T21:01:39.260Z,98429.03
2023-01-08T21:04:11.878Z,98426.50
2023-01-08T21:06:46.189Z,98429.06
2023-01-08T21:09:23.017Z,98418.00
2023-01-08T21:11:59.419Z,98420.56
2023-01-08T21:14:26.566Z,98416.34
2023-01-08T21:16:53.547Z,98420.59
2023-01-08T21:19:23.088Z,98417.19
2023-01-08T21:21:50.075Z,98423.19
2023-01-08T21:24:27.518Z,98425.75
2023-01-08T21:26:56.937Z,98427.47
2023-01-08T21:29:26.502Z,98424.06
2023-01-08T21:31:53.565Z,98419.81
2023-01-08T21:34:26.367Z,98418.97
2023-01-08T21:36:53.527Z,98414.72
2023-01-08T21:39:20.497Z,98413.88
2023-01-08T21:42:06.066Z,98415.63
2023-01-08T21:44:56.628Z,98411.34
2023-01-08T21:47:23.586Z,98402.00
2023-01-08T21:49:53.462Z,98419.03
2023-01-08T21:52:55.853Z,98413.06
2023-01-08T21:55:25.909Z,98414.78
2023-01-08T21:58:00.884Z,98410.50
2023-01-08T22:00:29.791Z,98409.69
2023-01-08T22:02:58.765Z,98404.56
2023-01-08T22:05:29.541Z,98397.75
2023-01-08T22:07:58.867Z,98407.13
2023-01-08T22:10:36.135Z,98407.97
2023-01-08T22:13:09.552Z,98402.88
2023-01-08T22:15:38.010Z,98398.63
2023-01-08T22:18:07.564Z,98385.84
2023-01-08T22:20:38.052Z,98383.31
2023-01-08T22:23:07.381Z,98385.00
2023-01-08T22:25:36.695Z,98382.44
2023-01-08T22:28:07.972Z,98379.06
2023-01-08T22:30:37.869Z,98371.41
2023-01-08T22:33:09.390Z,98367.13
2023-01-08T22:35:39.523Z,98371.41
2023-01-08T22:38:06.530Z,98356.91
2023-01-08T22:40:40.732Z,98358.63
2023-01-08T22:43:09.954Z,98349.25
2023-01-08T22:45:39.931Z,98341.59
2023-01-08T22:48:09.196Z,98333.94
2023-01-08T22:50:39.621Z,98327.16
2023-01-08T22:53:08.777Z,98335.66
2023-01-08T22:55:51.196Z,98334.81
2023-01-08T22:58:18.307Z,98325.44
2023-01-08T23:00:50.975Z,98333.09
2023-01-08T23:03:22.417Z,98333.09
2023-01-08T23:05:53.903Z,98328.00
2023-01-08T23:08:26.012Z,98330.56
2023-01-08T23:11:21.329Z,98332.31
2023-01-08T23:13:51.015Z,98325.47
2023-01-08T23:16:27.554Z,98314.44
2023-01-08T23:19:09.959Z,98312.72
2023-01-08T23:21:49.059Z,98314.44
2023-01-08T23:24:23.119Z,98312.72
2023-01-08T23:26:57.829Z,98309.31
2023-01-08T23:29:31.901Z,98313.59
2023-01-08T23:32:01.722Z,98322.94
2023-01-08T23:34:37.539Z,98318.69
2023-01-08T23:37:16.544Z,98316.97
2023-01-08T23:40:50.933Z,98317.00
2023-01-08T23:43:22.392Z,98311.88
2023-01-08T23:48:55.513Z,98305.09
2023-01-08T23:51:44.352Z,98300.88
2023-01-08T23:54:20.566Z,98288.94
2023-01-08T23:56:58.639Z,98277.88
2023-01-08T23:59:29.103Z,98277.03
